Greenville, MS

10:10 AM CDT on September 20, 2014 (GMT -0500)
Bastrop | Change Station
CLOSE
Current Station
Airport
Location: Bastrop,
Elevation: 167 ft
Nearby Weather Stations

Elev 167 ft 32.76 °N, 91.88 °W | Updated 15 minutes ago

Clear
Clear
82 °F
Feels Like 86 °F
N
0
Wind Variable Wind from North

Today
High -- | Low -- °F
--% Chance of Precip.
Yesterday
High -- | Low -- °F
Precip. -- in
6:50 AM 7:03 PM
Waning Crescent, 12% visible
Pressure 30.06 in
Visibility 10.0 miles
Clouds Clear
Heat Index 86 °F
Dew Point 71 °F
Humidity 69%
Rainfall 0.00 in
Snow Depth Not available.
UV 4 out of 12
Pollen 10.60 out of 12
Air Quality Not available.
Flu Activity Not available.
METAR KBQP 201455Z AUTO 00000KT 10SM CLR 28/22 A3006 RMK AO2 T02780217

More Conditions Fewer Conditions

Pressure 30.06 in
Visibility 10.0 miles
Clouds Clear
Heat Index 86 °F
Dew Point 71 °F
Humidity 69%
Rainfall 0.00 in
Snow Depth Not available.
UV 4 out of 12
Pollen 10.60 out of 12
Air Quality Not available.
Flu Activity Not available.
METAR KBQP 201455Z AUTO 00000KT 10SM CLR 28/22 A3006 RMK AO2 T02780217

More Conditions Fewer Conditions

10-Day Weather Forecast

Almanac

Astronomy

Sep. 20, 2014 Rise Set
Actual Time 6:50 AM CDT 7:03 PM CDT
Civil Twilight 6:25 AM CDT 7:28 PM CDT
Nautical Twilight 5:57 AM CDT 7:57 PM CDT
Astronomical Twilight 5:27 AM CDT 8:26 PM CDT
Moon 3:38 AM CDT 5:00 PM CDT
Length of Visible Light 13h 02m
Length of Day
12h 12m
Tomorrow will be 2m 2s shorter.
Waning Crescent, 12% of the Moon is Illuminated
Today
Waning Crescent
Sep 24
New
Oct 1
First Quarter
Oct 8
Full
Oct 15
Last Quarter

Today's Extremes

State Highs State Lows

Community

WunderPhotos

Upload Photos

1,754,875 photos uploaded!

WunderBlogs® & News

Nearby

Snow Depth

Station Depth Elevation
No new snow has been reported.

Earthquake Activity

City Distance Mag. Time & Date
No recent earthquake activity has been reported nearby.
Minimum magnitude displayed is 2.5.

Coastal Water Temperatures

Place Temperature
No Stations Reporting

Nearby Weather Stations